Time;durP1;ratioP1;P1;durP2;ratioP2;P2;SDS_P1;SDS_P2;PMS_P1;PMS_P2;Temp;Humidity;BMP_temperature;BMP_pressure;BME280_temperature;BME280_humidity;BME280_pressure;Samples;Min_cycle;Max_cycle;Signal;HPM_P1;HPM_P2
2022/03/04 00:02:15;;;;;;;36.03;19.38;;;;;;;;;;5052164;28;20040;-74
2022/03/04 00:04:42;;;;;;;38.80;19.45;;;;;;;;;;5050847;28;20616;-75
2022/03/04 00:07:08;;;;;;;35.63;19.63;;;;;;;;;;5050416;28;20124;-75
2022/03/04 00:09:34;;;;;;;37.50;18.88;;;;;;;;;;5050192;28;20160;-75
2022/03/04 00:12:03;;;;;;;39.85;20.83;;;;;;;;;;5049556;28;20049;-75
2022/03/04 00:14:29;;;;;;;37.88;18.80;;;;;;;;;;5049784;28;20032;-76
2022/03/04 00:16:55;;;;;;;37.30;19.85;;;;;;;;;;5050171;28;20431;-75
2022/03/04 00:19:21;;;;;;;35.83;19.27;;;;;;;;;;5050276;28;20115;-76
2022/03/04 00:21:50;;;;;;;37.42;19.10;;;;;;;;;;5049948;28;20537;-76
2022/03/04 00:24:16;;;;;;;40.22;19.92;;;;;;;;;;5049708;28;20124;-76
2022/03/04 00:26:43;;;;;;;38.20;18.65;;;;;;;;;;5049300;28;20119;-76
2022/03/04 00:29:09;;;;;;;42.03;19.45;;;;;;;;;;5050433;28;20094;-76
2022/03/04 00:31:35;;;;;;;38.90;19.92;;;;;;;;;;5031941;28;20025;-76
2022/03/04 00:34:02;;;;;;;38.10;20.08;;;;;;;;;;5049708;28;20040;-76
2022/03/04 00:36:28;;;;;;;41.63;19.27;;;;;;;;;;5049862;28;20060;-76
2022/03/04 00:38:55;;;;;;;38.17;19.77;;;;;;;;;;5050425;28;20086;-74
2022/03/04 00:41:22;;;;;;;40.70;20.40;;;;;;;;;;5051247;28;20032;-74
2022/03/04 00:43:49;;;;;;;41.33;19.88;;;;;;;;;;5050364;28;20022;-75
2022/03/04 00:46:15;;;;;;;39.00;20.30;;;;;;;;;;5050333;28;20526;-75
2022/03/04 00:48:42;;;;;;;42.58;20.15;;;;;;;;;;5049944;28;20510;-75
2022/03/04 00:51:08;;;;;;;40.58;19.42;;;;;;;;;;5049248;28;20123;-75
2022/03/04 00:53:35;;;;;;;47.22;20.85;;;;;;;;;;5050400;28;20083;-75
2022/03/04 00:56:01;;;;;;;40.05;19.58;;;;;;;;;;5050097;28;20025;-75
2022/03/04 00:58:27;;;;;;;38.78;20.20;;;;;;;;;;5051235;28;20029;-74
2022/03/04 01:00:53;;;;;;;42.10;20.48;;;;;;;;;;5050476;28;20489;-74
2022/03/04 01:03:19;;;;;;;45.28;20.05;;;;;;;;;;5050064;28;20025;-75
2022/03/04 01:05:45;;;;;;;37.55;18.90;;;;;;;;;;5050640;28;20489;-75
2022/03/04 01:08:11;;;;;;;43.97;19.50;;;;;;;;;;5050253;28;20043;-74
2022/03/04 01:10:38;;;;;;;42.45;21.48;;;;;;;;;;5049289;28;20060;-75
2022/03/04 01:13:04;;;;;;;41.10;20.67;;;;;;;;;;5050340;28;20049;-74
2022/03/04 01:15:31;;;;;;;37.78;18.98;;;;;;;;;;5049704;28;20057;-75
2022/03/04 01:17:57;;;;;;;39.17;20.63;;;;;;;;;;5049678;28;20029;-74
2022/03/04 01:20:23;;;;;;;43.13;20.25;;;;;;;;;;5049722;28;20025;-75
2022/03/04 01:22:49;;;;;;;44.20;21.15;;;;;;;;;;5049420;28;20024;-75
2022/03/04 01:25:16;;;;;;;43.03;20.65;;;;;;;;;;5049000;28;20404;-75
2022/03/04 01:27:42;;;;;;;40.83;20.85;;;;;;;;;;5049589;28;20025;-75
2022/03/04 01:30:09;;;;;;;40.03;20.35;;;;;;;;;;5050053;28;20470;-75
2022/03/04 01:32:36;;;;;;;42.35;20.83;;;;;;;;;;5047954;28;20020;-75
2022/03/04 01:35:02;;;;;;;40.00;19.80;;;;;;;;;;5049349;28;20069;-76
2022/03/04 01:37:28;;;;;;;40.20;19.90;;;;;;;;;;5048537;28;20468;-76
2022/03/04 01:39:54;;;;;;;44.08;20.13;;;;;;;;;;5031633;28;20036;-75
2022/03/04 01:42:20;;;;;;;41.13;21.33;;;;;;;;;;5050956;28;20098;-75
2022/03/04 01:44:47;;;;;;;42.05;20.50;;;;;;;;;;5052847;28;20547;-74
2022/03/04 01:47:13;;;;;;;41.97;21.13;;;;;;;;;;5053709;28;20033;-75
2022/03/04 01:49:40;;;;;;;40.75;20.20;;;;;;;;;;5054185;28;20033;-75
2022/03/04 01:52:06;;;;;;;43.28;21.02;;;;;;;;;;5053312;28;20025;-77
2022/03/04 01:54:33;;;;;;;41.50;20.70;;;;;;;;;;5054089;28;20031;-74
2022/03/04 01:56:59;;;;;;;39.55;20.13;;;;;;;;;;5052815;28;20037;-75
2022/03/04 01:59:25;;;;;;;44.78;22.02;;;;;;;;;;5054109;28;20047;-75
2022/03/04 02:01:55;;;;;;;46.53;21.90;;;;;;;;;;5054116;28;20029;-74
2022/03/04 02:04:21;;;;;;;45.95;21.08;;;;;;;;;;5052941;28;20036;-75
2022/03/04 02:06:47;;;;;;;44.83;21.67;;;;;;;;;;5053373;28;20044;-75
2022/03/04 02:09:13;;;;;;;44.53;21.05;;;;;;;;;;5052590;28;20113;-74
2022/03/04 02:11:43;;;;;;;43.28;20.75;;;;;;;;;;5052553;28;20123;-75
2022/03/04 02:14:09;;;;;;;44.15;21.48;;;;;;;;;;5053988;28;20055;-75
2022/03/04 02:16:39;;;;;;;48.85;21.23;;;;;;;;;;5053740;28;20506;-76
2022/03/04 02:19:05;;;;;;;46.60;20.77;;;;;;;;;;5053367;28;20071;-75
2022/03/04 02:21:31;;;;;;;40.00;20.58;;;;;;;;;;5052679;28;20540;-75
2022/03/04 02:23:57;;;;;;;42.55;20.95;;;;;;;;;;5052444;28;20044;-75
2022/03/04 02:26:23;;;;;;;47.80;20.92;;;;;;;;;;5052357;28;20068;-74
2022/03/04 02:28:50;;;;;;;47.88;22.65;;;;;;;;;;5051966;28;20132;-75
2022/03/04 02:31:17;;;;;;;48.38;20.73;;;;;;;;;;5052556;28;20021;-76
2022/03/04 02:33:44;;;;;;;40.58;20.23;;;;;;;;;;5052070;28;20029;-76
2022/03/04 02:36:10;;;;;;;40.38;20.05;;;;;;;;;;5052027;28;20017;-75
2022/03/04 02:38:36;;;;;;;44.53;21.05;;;;;;;;;;5050999;28;20110;-76
2022/03/04 02:41:02;;;;;;;46.47;20.27;;;;;;;;;;5051936;28;20210;-75
2022/03/04 02:43:28;;;;;;;42.50;21.75;;;;;;;;;;5051982;28;20101;-75
2022/03/04 02:45:54;;;;;;;44.75;22.27;;;;;;;;;;5052356;28;20013;-75
2022/03/04 02:48:20;;;;;;;41.60;19.85;;;;;;;;;;5052076;28;20534;-76
2022/03/04 02:50:46;;;;;;;46.42;22.45;;;;;;;;;;5052762;28;20037;-75
2022/03/04 02:53:12;;;;;;;43.80;21.38;;;;;;;;;;5051315;28;20029;-75
2022/03/04 02:55:38;;;;;;;46.75;21.30;;;;;;;;;;5050817;28;20478;-76
2022/03/04 02:58:05;;;;;;;46.00;22.67;;;;;;;;;;5052049;28;20025;-75
2022/03/04 03:00:31;;;;;;;47.78;22.33;;;;;;;;;;5052034;28;20029;-74
2022/03/04 03:02:57;;;;;;;53.13;23.08;;;;;;;;;;5051852;28;20036;-75
2022/03/04 03:05:23;;;;;;;44.88;20.95;;;;;;;;;;5050447;28;20060;-74
2022/03/04 03:07:50;;;;;;;51.28;22.08;;;;;;;;;;5051257;28;20047;-75
2022/03/04 03:10:16;;;;;;;48.00;21.30;;;;;;;;;;5051990;28;20033;-75
2022/03/04 03:12:43;;;;;;;46.65;21.52;;;;;;;;;;5050755;28;20045;-75
2022/03/04 03:15:10;;;;;;;49.60;23.35;;;;;;;;;;5051230;28;20021;-75
2022/03/04 03:17:36;;;;;;;42.58;20.88;;;;;;;;;;5050964;28;20037;-74
2022/03/04 03:20:03;;;;;;;44.65;22.13;;;;;;;;;;5050813;28;20032;-75
2022/03/04 03:22:29;;;;;;;45.00;22.27;;;;;;;;;;5051456;28;20032;-74
2022/03/04 03:24:55;;;;;;;47.35;21.45;;;;;;;;;;5050719;28;20033;-74
2022/03/04 03:27:21;;;;;;;44.80;21.70;;;;;;;;;;5050772;28;20056;-75
2022/03/04 03:29:47;;;;;;;42.42;22.38;;;;;;;;;;5050828;28;20442;-75
2022/03/04 03:32:14;;;;;;;50.83;22.77;;;;;;;;;;5051189;28;20154;-75
2022/03/04 03:34:40;;;;;;;47.05;22.25;;;;;;;;;;5050606;28;20021;-73
2022/03/04 03:37:07;;;;;;;50.00;23.80;;;;;;;;;;5032734;28;20036;-75
2022/03/04 03:39:34;;;;;;;47.20;22.33;;;;;;;;;;5051496;28;20054;-74
2022/03/04 03:42:00;;;;;;;49.13;22.48;;;;;;;;;;5051017;28;20036;-75
2022/03/04 03:44:26;;;;;;;48.20;23.10;;;;;;;;;;5051110;28;20043;-74
2022/03/04 03:46:53;;;;;;;52.83;22.02;;;;;;;;;;5050573;28;20029;-74
2022/03/04 03:49:19;;;;;;;47.05;21.77;;;;;;;;;;5050597;28;20063;-75
2022/03/04 03:51:45;;;;;;;44.65;21.33;;;;;;;;;;5050623;28;20124;-75
2022/03/04 03:54:11;;;;;;;56.50;23.65;;;;;;;;;;5050972;28;20021;-74
2022/03/04 03:56:38;;;;;;;54.58;22.38;;;;;;;;;;5050843;28;20160;-73
2022/03/04 03:59:04;;;;;;;47.97;22.67;;;;;;;;;;5050049;28;20059;-75
2022/03/04 04:01:30;;;;;;;51.33;22.98;;;;;;;;;;5050313;28;20033;-74
2022/03/04 04:03:57;;;;;;;48.90;22.92;;;;;;;;;;5050282;28;20029;-73
2022/03/04 04:06:23;;;;;;;51.55;22.67;;;;;;;;;;5048944;28;20048;-74
2022/03/04 04:08:49;;;;;;;49.70;22.58;;;;;;;;;;5050046;28;20064;-75
2022/03/04 04:11:15;;;;;;;52.35;23.50;;;;;;;;;;5049278;28;20068;-75
2022/03/04 04:13:42;;;;;;;50.90;22.65;;;;;;;;;;5049853;28;20035;-75
2022/03/04 04:16:08;;;;;;;50.75;22.15;;;;;;;;;;5049744;28;20116;-75
2022/03/04 04:18:35;;;;;;;50.47;22.05;;;;;;;;;;5047956;28;20056;-74
2022/03/04 04:21:02;;;;;;;49.70;23.13;;;;;;;;;;5049580;28;20052;-74
2022/03/04 04:23:28;;;;;;;50.67;24.13;;;;;;;;;;5049603;28;20032;-74
2022/03/04 04:25:54;;;;;;;48.03;21.63;;;;;;;;;;5049365;28;20471;-74
2022/03/04 04:28:22;;;;;;;50.67;23.40;;;;;;;;;;5049403;28;20063;-73
2022/03/04 04:30:48;;;;;;;43.83;21.77;;;;;;;;;;5049883;28;20032;-74
2022/03/04 04:33:14;;;;;;;49.72;22.23;;;;;;;;;;5048176;28;20052;-74
2022/03/04 04:35:40;;;;;;;49.28;22.02;;;;;;;;;;5049451;28;20033;-74
2022/03/04 04:38:06;;;;;;;48.70;22.00;;;;;;;;;;5049623;28;20028;-74
2022/03/04 04:40:32;;;;;;;47.58;22.75;;;;;;;;;;5049810;28;20111;-73
2022/03/04 04:42:58;;;;;;;55.15;23.00;;;;;;;;;;5049947;28;20064;-74
2022/03/04 04:45:24;;;;;;;45.72;22.00;;;;;;;;;;5049718;28;20091;-74
2022/03/04 04:47:50;;;;;;;49.90;22.17;;;;;;;;;;5049562;28;20029;-75
2022/03/04 04:50:16;;;;;;;48.00;23.35;;;;;;;;;;5049792;28;20036;-74
2022/03/04 04:52:42;;;;;;;54.92;25.05;;;;;;;;;;5050198;28;20040;-74
2022/03/04 04:55:09;;;;;;;52.35;23.80;;;;;;;;;;5049723;28;20025;-75
2022/03/04 04:57:35;;;;;;;53.75;25.05;;;;;;;;;;5049331;28;20025;-75
2022/03/04 05:00:01;;;;;;;53.28;23.92;;;;;;;;;;5049463;28;20068;-75
2022/03/04 05:02:27;;;;;;;51.15;23.40;;;;;;;;;;5049188;28;20107;-75
2022/03/04 05:04:54;;;;;;;52.75;23.52;;;;;;;;;;5049518;28;20127;-75
2022/03/04 05:07:20;;;;;;;51.67;23.55;;;;;;;;;;5049099;28;20078;-74
2022/03/04 05:09:46;;;;;;;51.15;23.95;;;;;;;;;;5031397;28;20098;-74
2022/03/04 05:12:12;;;;;;;57.80;25.08;;;;;;;;;;5048993;28;20475;-74
2022/03/04 05:14:38;;;;;;;52.50;23.83;;;;;;;;;;5049631;28;20025;-75
2022/03/04 05:17:05;;;;;;;60.40;24.27;;;;;;;;;;5050079;28;20029;-76
2022/03/04 05:19:31;;;;;;;54.85;25.17;;;;;;;;;;5053427;28;20033;-74
2022/03/04 05:21:57;;;;;;;54.67;24.17;;;;;;;;;;5053145;28;20052;-72
2022/03/04 05:24:23;;;;;;;55.63;24.50;;;;;;;;;;5052871;28;20102;-74
2022/03/04 05:26:49;;;;;;;58.47;25.13;;;;;;;;;;5052220;28;20033;-74
2022/03/04 05:29:15;;;;;;;59.15;25.17;;;;;;;;;;5052822;28;20481;-74
2022/03/04 05:31:43;;;;;;;59.08;26.42;;;;;;;;;;5053123;28;20072;-75
2022/03/04 05:34:10;;;;;;;60.33;24.73;;;;;;;;;;5052984;28;20029;-74
2022/03/04 05:36:37;;;;;;;63.35;27.02;;;;;;;;;;5052459;28;20048;-74
2022/03/04 05:39:03;;;;;;;68.70;28.20;;;;;;;;;;5052089;28;20091;-75
2022/03/04 05:41:30;;;;;;;67.97;26.25;;;;;;;;;;5052321;28;20036;-75
2022/03/04 05:43:56;;;;;;;69.88;27.75;;;;;;;;;;5052236;28;20025;-74
2022/03/04 05:46:22;;;;;;;63.22;26.95;;;;;;;;;;5051804;28;20123;-74
2022/03/04 05:48:49;;;;;;;61.53;27.08;;;;;;;;;;5052167;28;20084;-75
2022/03/04 05:51:15;;;;;;;69.38;27.75;;;;;;;;;;5052594;28;20033;-75
2022/03/04 05:53:42;;;;;;;79.93;33.88;;;;;;;;;;5052297;28;20064;-75
2022/03/04 05:56:09;;;;;;;58.80;27.00;;;;;;;;;;5034678;28;20024;-75
2022/03/04 05:58:35;;;;;;;64.68;28.88;;;;;;;;;;5052931;28;20234;-74
2022/03/04 06:01:02;;;;;;;68.10;28.02;;;;;;;;;;5053124;28;20037;-77
2022/03/04 06:03:28;;;;;;;69.85;29.85;;;;;;;;;;5053210;28;20029;-76
2022/03/04 06:05:54;;;;;;;61.95;28.80;;;;;;;;;;5053308;28;20025;-75
2022/03/04 06:08:21;;;;;;;66.88;27.58;;;;;;;;;;5051693;28;20124;-74
2022/03/04 06:10:47;;;;;;;66.47;28.08;;;;;;;;;;5053035;28;20039;-77
2022/03/04 06:13:13;;;;;;;65.03;27.23;;;;;;;;;;5053659;28;20056;-76
2022/03/04 06:15:39;;;;;;;75.43;28.10;;;;;;;;;;5053196;28;20492;-77
2022/03/04 06:18:05;;;;;;;70.13;30.48;;;;;;;;;;5053924;28;20033;-77
2022/03/04 06:20:32;;;;;;;69.40;29.48;;;;;;;;;;5054029;28;20044;-76
2022/03/04 06:22:58;;;;;;;62.70;26.95;;;;;;;;;;5053213;28;20063;-77
2022/03/04 06:25:25;;;;;;;66.22;28.95;;;;;;;;;;5052233;28;20382;-76
2022/03/04 06:27:53;;;;;;;69.53;27.95;;;;;;;;;;5033679;28;20498;-77
2022/03/04 06:30:19;;;;;;;63.38;28.23;;;;;;;;;;5051714;28;20048;-77
2022/03/04 06:32:45;;;;;;;66.50;28.52;;;;;;;;;;5051091;28;20039;-78
2022/03/04 06:35:11;;;;;;;65.65;28.45;;;;;;;;;;5052004;28;20025;-78
2022/03/04 06:37:37;;;;;;;65.07;28.38;;;;;;;;;;5051682;28;20029;-78
2022/03/04 06:40:06;;;;;;;62.08;27.25;;;;;;;;;;5052408;28;20136;-77
2022/03/04 06:42:32;;;;;;;71.10;29.90;;;;;;;;;;5053203;28;20414;-77
2022/03/04 06:44:58;;;;;;;70.97;30.52;;;;;;;;;;5053078;28;20033;-76
2022/03/04 06:47:24;;;;;;;72.57;30.45;;;;;;;;;;5053314;28;20060;-77
2022/03/04 06:49:50;;;;;;;65.53;30.08;;;;;;;;;;5036167;28;20056;-75
2022/03/04 06:52:16;;;;;;;67.65;31.40;;;;;;;;;;5053734;28;20033;-77
2022/03/04 06:54:42;;;;;;;68.85;29.33;;;;;;;;;;5053547;28;20066;-76
2022/03/04 06:57:08;;;;;;;71.50;28.67;;;;;;;;;;5053044;28;20110;-77
2022/03/04 06:59:35;;;;;;;59.38;27.10;;;;;;;;;;5054377;28;20028;-76
2022/03/04 07:02:01;;;;;;;53.40;24.90;;;;;;;;;;5053454;28;20482;-78
2022/03/04 07:04:27;;;;;;;48.65;23.23;;;;;;;;;;5053945;28;20025;-77
2022/03/04 07:06:53;;;;;;;48.90;23.27;;;;;;;;;;5034431;28;20090;-77
2022/03/04 07:09:19;;;;;;;45.22;21.95;;;;;;;;;;5034025;28;20119;-77
2022/03/04 07:11:45;;;;;;;50.28;22.70;;;;;;;;;;5051886;28;20175;-77
2022/03/04 07:14:11;;;;;;;48.85;23.83;;;;;;;;;;5052249;28;20078;-77
2022/03/04 07:16:37;;;;;;;43.70;22.60;;;;;;;;;;5051662;28;20544;-77
2022/03/04 07:19:03;;;;;;;48.85;22.55;;;;;;;;;;5051546;28;20036;-77
2022/03/04 07:21:29;;;;;;;47.55;21.42;;;;;;;;;;5051066;28;20106;-77
2022/03/04 07:23:55;;;;;;;45.53;22.20;;;;;;;;;;5051886;28;20033;-76
2022/03/04 07:26:21;;;;;;;44.15;22.60;;;;;;;;;;5034207;28;20056;-76
2022/03/04 07:28:47;;;;;;;44.97;21.65;;;;;;;;;;5051972;28;20080;-75
2022/03/04 07:31:14;;;;;;;41.83;22.08;;;;;;;;;;5051207;28;20071;-75
2022/03/04 07:33:40;;;;;;;44.80;22.30;;;;;;;;;;5052344;28;20035;-74
2022/03/04 07:36:06;;;;;;;42.13;21.40;;;;;;;;;;5052394;28;20047;-75
2022/03/04 07:38:32;;;;;;;47.83;23.33;;;;;;;;;;5051293;28;20025;-75
2022/03/04 07:40:58;;;;;;;47.38;22.17;;;;;;;;;;5050749;28;20037;-75
2022/03/04 07:43:25;;;;;;;44.47;22.15;;;;;;;;;;5050889;28;20035;-75
2022/03/04 07:45:51;;;;;;;43.22;20.98;;;;;;;;;;5051592;28;20033;-75
2022/03/04 07:48:19;;;;;;;43.92;20.42;;;;;;;;;;5051411;28;20102;-72
2022/03/04 07:50:45;;;;;;;39.67;19.58;;;;;;;;;;5050588;28;20029;-75
2022/03/04 07:53:12;;;;;;;40.58;20.77;;;;;;;;;;5050140;28;20029;-74
2022/03/04 07:55:38;;;;;;;40.38;20.10;;;;;;;;;;5050726;28;20391;-75
2022/03/04 07:58:04;;;;;;;39.22;21.58;;;;;;;;;;5032394;28;20048;-75
2022/03/04 08:00:30;;;;;;;42.38;20.75;;;;;;;;;;5050339;28;20036;-76
2022/03/04 08:02:57;;;;;;;39.35;19.75;;;;;;;;;;5050902;28;20048;-75
2022/03/04 08:05:24;;;;;;;40.88;21.25;;;;;;;;;;5050064;28;20116;-75
2022/03/04 08:07:50;;;;;;;46.03;21.77;;;;;;;;;;5032022;28;20033;-76
2022/03/04 08:10:16;;;;;;;39.35;20.00;;;;;;;;;;5050519;28;20033;-75
2022/03/04 08:12:42;;;;;;;37.25;18.40;;;;;;;;;;5050723;28;20095;-75
2022/03/04 08:15:12;;;;;;;34.20;18.40;;;;;;;;;;5050994;28;20415;-75
2022/03/04 08:17:44;;;;;;;43.35;19.88;;;;;;;;;;5050322;28;20095;-75
2022/03/04 08:20:11;;;;;;;34.03;18.50;;;;;;;;;;5051660;28;20028;-75
2022/03/04 08:22:37;;;;;;;35.25;18.88;;;;;;;;;;5051122;28;20438;-75
2022/03/04 08:25:03;;;;;;;32.90;18.75;;;;;;;;;;5051132;28;20029;-76
2022/03/04 08:27:29;;;;;;;36.40;18.55;;;;;;;;;;5052014;28;20120;-74
2022/03/04 08:29:55;;;;;;;38.83;19.80;;;;;;;;;;5051436;28;20136;-73
2022/03/04 08:32:23;;;;;;;36.85;18.98;;;;;;;;;;5050965;28;20029;-76
2022/03/04 08:34:49;;;;;;;38.38;19.13;;;;;;;;;;5033285;28;20658;-75
2022/03/04 08:37:16;;;;;;;34.65;19.20;;;;;;;;;;5032869;28;20116;-74
2022/03/04 08:39:42;;;;;;;33.85;18.50;;;;;;;;;;5050173;28;20025;-75
2022/03/04 08:42:08;;;;;;;39.50;18.02;;;;;;;;;;5049990;28;20032;-75
2022/03/04 08:44:34;;;;;;;36.75;18.20;;;;;;;;;;5050022;28;20036;-74
2022/03/04 08:47:00;;;;;;;35.30;17.92;;;;;;;;;;5049700;28;20081;-75
2022/03/04 08:49:26;;;;;;;35.60;17.42;;;;;;;;;;5050143;28;20474;-75
2022/03/04 08:51:52;;;;;;;35.40;18.50;;;;;;;;;;5049544;28;20120;-76
2022/03/04 08:54:18;;;;;;;32.60;17.55;;;;;;;;;;5049555;28;20029;-75
2022/03/04 08:56:44;;;;;;;28.73;16.85;;;;;;;;;;5049551;28;20470;-74
2022/03/04 08:59:10;;;;;;;34.95;17.60;;;;;;;;;;5049225;28;20033;-74
2022/03/04 09:01:36;;;;;;;32.83;18.60;;;;;;;;;;5049189;28;20025;-74
2022/03/04 09:04:03;;;;;;;33.13;17.85;;;;;;;;;;5050285;28;20037;-75
2022/03/04 09:06:29;;;;;;;32.35;16.52;;;;;;;;;;5047761;28;20037;-75
2022/03/04 09:08:55;;;;;;;34.38;17.17;;;;;;;;;;5050197;28;20112;-74
2022/03/04 09:11:21;;;;;;;32.78;17.17;;;;;;;;;;5031782;28;20052;-73
2022/03/04 09:13:47;;;;;;;33.65;17.42;;;;;;;;;;5049412;28;20074;-76
2022/03/04 09:16:13;;;;;;;31.30;16.73;;;;;;;;;;5049932;28;20104;-74
2022/03/04 09:18:39;;;;;;;29.10;17.15;;;;;;;;;;5049779;28;20378;-75
2022/03/04 09:21:05;;;;;;;32.30;17.52;;;;;;;;;;5050858;28;20100;-76
2022/03/04 09:23:31;;;;;;;29.70;16.75;;;;;;;;;;5032481;28;20207;-73
2022/03/04 09:25:57;;;;;;;39.78;18.50;;;;;;;;;;5049886;28;20075;-76
2022/03/04 09:28:23;;;;;;;28.15;15.65;;;;;;;;;;5049630;28;20029;-75
2022/03/04 09:30:49;;;;;;;29.23;16.98;;;;;;;;;;5049493;28;20037;-75
2022/03/04 09:33:15;;;;;;;29.17;17.00;;;;;;;;;;5049923;28;20025;-75
2022/03/04 09:35:42;;;;;;;31.20;17.75;;;;;;;;;;5049736;28;20029;-75
2022/03/04 09:38:10;;;;;;;28.63;16.25;;;;;;;;;;5049579;28;20094;-75
2022/03/04 09:40:37;;;;;;;32.08;17.35;;;;;;;;;;5047477;28;20479;-74
2022/03/04 09:43:06;;;;;;;34.75;18.05;;;;;;;;;;5049582;28;20028;-76
2022/03/04 09:45:32;;;;;;;31.02;16.88;;;;;;;;;;5049820;28;20087;-75
2022/03/04 09:47:58;;;;;;;28.38;16.90;;;;;;;;;;5048992;28;20033;-75
2022/03/04 09:50:25;;;;;;;32.50;17.25;;;;;;;;;;5049528;28;20095;-75
2022/03/04 09:52:51;;;;;;;31.65;18.13;;;;;;;;;;5049294;28;20025;-75
2022/03/04 09:55:17;;;;;;;33.15;18.00;;;;;;;;;;5049347;28;20063;-75
2022/03/04 09:57:43;;;;;;;29.55;17.63;;;;;;;;;;5048958;28;20053;-75
2022/03/04 10:00:11;;;;;;;32.88;18.10;;;;;;;;;;5050261;28;20029;-75
2022/03/04 10:02:37;;;;;;;30.15;16.58;;;;;;;;;;5050303;28;20033;-75
2022/03/04 10:05:03;;;;;;;28.33;16.67;;;;;;;;;;5051253;28;20029;-75
2022/03/04 10:07:43;;;;;;;31.20;17.25;;;;;;;;;;5053865;28;20036;-75
2022/03/04 10:10:14;;;;;;;32.63;17.77;;;;;;;;;;5053928;28;20151;-75
2022/03/04 10:12:46;;;;;;;27.53;16.53;;;;;;;;;;5053429;28;20045;-75
2022/03/04 10:15:12;;;;;;;27.77;16.77;;;;;;;;;;5053745;28;20409;-76
2022/03/04 10:17:39;;;;;;;30.80;17.08;;;;;;;;;;5052664;28;20498;-75
2022/03/04 10:20:07;;;;;;;30.98;18.17;;;;;;;;;;5035275;28;20114;-75
2022/03/04 10:22:35;;;;;;;30.30;16.85;;;;;;;;;;5053796;28;20045;-76
2022/03/04 10:25:03;;;;;;;30.60;18.08;;;;;;;;;;5053926;28;20051;-75
2022/03/04 10:27:33;;;;;;;27.40;17.15;;;;;;;;;;5053098;28;20510;-76
2022/03/04 10:29:59;;;;;;;29.88;17.83;;;;;;;;;;5053346;28;20040;-74
2022/03/04 10:32:29;;;;;;;26.10;16.48;;;;;;;;;;5053307;28;20033;-76
2022/03/04 10:35:03;;;;;;;38.33;17.75;;;;;;;;;;5052783;28;20037;-76
2022/03/04 10:37:40;;;;;;;28.65;18.23;;;;;;;;;;5052380;28;20083;-75
2022/03/04 10:40:09;;;;;;;30.50;16.98;;;;;;;;;;5051836;28;20036;-75
2022/03/04 10:42:47;;;;;;;28.92;18.05;;;;;;;;;;5051685;28;20112;-76
2022/03/04 10:45:15;;;;;;;29.08;18.27;;;;;;;;;;5051894;28;20033;-74
2022/03/04 10:47:44;;;;;;;31.63;18.00;;;;;;;;;;5051685;28;20025;-76
2022/03/04 10:50:10;;;;;;;31.95;18.92;;;;;;;;;;5051705;28;20052;-75
2022/03/04 10:52:47;;;;;;;31.58;18.00;;;;;;;;;;5051527;28;20032;-75
2022/03/04 10:55:13;;;;;;;32.17;18.13;;;;;;;;;;5052045;28;20021;-76
2022/03/04 10:57:42;;;;;;;33.05;17.77;;;;;;;;;;5051323;28;20025;-74
2022/03/04 11:00:09;;;;;;;36.60;18.15;;;;;;;;;;5051869;28;20064;-73
2022/03/04 11:02:46;;;;;;;32.50;17.48;;;;;;;;;;5052777;28;20040;-75
2022/03/04 11:05:12;;;;;;;31.27;18.17;;;;;;;;;;5053265;28;20119;-75
2022/03/04 11:07:38;;;;;;;27.92;16.48;;;;;;;;;;5052924;28;20059;-75
2022/03/04 11:10:04;;;;;;;31.17;17.77;;;;;;;;;;5051590;28;20128;-75
2022/03/04 11:12:31;;;;;;;29.80;16.90;;;;;;;;;;5052602;28;20451;-76
2022/03/04 11:14:57;;;;;;;32.13;16.65;;;;;;;;;;5052480;28;20106;-75
2022/03/04 11:17:24;;;;;;;32.42;17.65;;;;;;;;;;5052793;28;20029;-76
2022/03/04 11:19:51;;;;;;;30.63;17.95;;;;;;;;;;5052507;28;20025;-75
2022/03/04 11:22:17;;;;;;;25.75;16.48;;;;;;;;;;5052817;28;20038;-76
2022/03/04 11:24:43;;;;;;;29.35;16.98;;;;;;;;;;5053236;28;20083;-74
2022/03/04 11:27:10;;;;;;;26.90;15.27;;;;;;;;;;5052376;28;20041;-75
2022/03/04 11:29:37;;;;;;;27.88;16.25;;;;;;;;;;5052771;28;20100;-75
2022/03/04 11:32:06;;;;;;;29.88;16.77;;;;;;;;;;5051951;28;20108;-75
2022/03/04 11:34:34;;;;;;;26.75;16.25;;;;;;;;;;5052502;28;20021;-75
2022/03/04 11:37:03;;;;;;;28.85;16.38;;;;;;;;;;5052539;28;20506;-74
2022/03/04 11:39:29;;;;;;;27.02;15.60;;;;;;;;;;5051926;28;20166;-76
2022/03/04 11:41:55;;;;;;;28.67;15.90;;;;;;;;;;5051348;28;20052;-75
2022/03/04 11:44:22;;;;;;;25.45;15.90;;;;;;;;;;5051036;28;20527;-77
2022/03/04 11:47:02;;;;;;;26.42;13.88;;;;;;;;;;5051029;28;20041;-77
2022/03/04 11:49:34;;;;;;;25.17;14.35;;;;;;;;;;5049849;28;20379;-75
2022/03/04 11:52:12;;;;;;;24.38;13.68;;;;;;;;;;5048850;28;20394;-75
2022/03/04 11:54:40;;;;;;;22.45;13.10;;;;;;;;;;5050866;28;20482;-76
2022/03/04 11:57:25;;;;;;;22.77;13.40;;;;;;;;;;5051078;28;20025;-76
2022/03/04 11:59:51;;;;;;;22.65;13.65;;;;;;;;;;5050414;28;20096;-76
2022/03/04 12:02:37;;;;;;;23.08;14.50;;;;;;;;;;5050385;28;20027;-75
2022/03/04 12:05:38;;;;;;;23.02;12.57;;;;;;;;;;5050367;28;20095;-76
2022/03/04 12:08:02;;;;;;;24.52;12.55;;;;;;;;;;5049667;28;20118;-74
2022/03/04 12:10:31;;;;;;;25.67;13.02;;;;;;;;;;5050368;28;20068;-75
2022/03/04 12:13:00;;;;;;;19.67;12.60;;;;;;;;;;5051306;28;20123;-74
2022/03/04 12:15:26;;;;;;;25.63;14.10;;;;;;;;;;5052073;28;20103;-75
2022/03/04 12:18:03;;;;;;;23.38;14.20;;;;;;;;;;5052114;28;20025;-76
2022/03/04 12:20:41;;;;;;;22.80;12.60;;;;;;;;;;5052206;28;20083;-75
2022/03/04 12:23:09;;;;;;;24.38;14.10;;;;;;;;;;5051671;28;20029;-75
2022/03/04 12:25:56;;;;;;;24.25;13.57;;;;;;;;;;5051885;28;20116;-75
2022/03/04 12:28:31;;;;;;;21.67;12.98;;;;;;;;;;5051869;28;20032;-75
2022/03/04 12:31:00;;;;;;;20.77;13.32;;;;;;;;;;5051637;28;20057;-76
2022/03/04 12:33:35;;;;;;;19.92;12.63;;;;;;;;;;5051993;28;20068;-75
2022/03/04 12:36:03;;;;;;;18.67;12.45;;;;;;;;;;5051284;28;20115;-75
2022/03/04 12:38:30;;;;;;;25.73;14.50;;;;;;;;;;5051806;28;20247;-76
2022/03/04 12:40:56;;;;;;;21.13;13.23;;;;;;;;;;5051205;28;20112;-75
2022/03/04 12:43:22;;;;;;;21.65;12.32;;;;;;;;;;5052111;28;20040;-76
2022/03/04 12:45:48;;;;;;;22.90;12.77;;;;;;;;;;5051701;28;20109;-76
2022/03/04 12:48:14;;;;;;;22.92;13.48;;;;;;;;;;5049326;28;20383;-75
2022/03/04 12:50:40;;;;;;;25.83;13.65;;;;;;;;;;5033473;28;20037;-76
2022/03/04 12:53:19;;;;;;;22.05;12.88;;;;;;;;;;5051151;28;20072;-76
2022/03/04 12:55:52;;;;;;;18.92;12.15;;;;;;;;;;5050723;28;20032;-76
2022/03/04 12:58:56;;;;;;;22.17;11.90;;;;;;;;;;5051099;28;20044;-74
2022/03/04 13:01:23;;;;;;;21.42;13.30;;;;;;;;;;5008132;28;20037;-76
2022/03/04 13:03:50;;;;;;;22.23;12.75;;;;;;;;;;5009157;28;20140;-76
2022/03/04 13:06:17;;;;;;;22.50;11.82;;;;;;;;;;5029037;28;20045;-74
2022/03/04 13:08:47;;;;;;;22.63;11.90;;;;;;;;;;5050705;28;20040;-74
2022/03/04 13:11:14;;;;;;;19.65;12.07;;;;;;;;;;5050614;28;20091;-75
2022/03/04 13:13:47;;;;;;;23.13;12.73;;;;;;;;;;5051039;28;20562;-74
2022/03/04 13:16:13;;;;;;;21.38;13.13;;;;;;;;;;5051399;28;20079;-75
2022/03/04 13:18:40;;;;;;;19.02;11.70;;;;;;;;;;5050929;28;20028;-74
2022/03/04 13:21:07;;;;;;;19.00;11.43;;;;;;;;;;5033015;28;20108;-75
2022/03/04 13:23:34;;;;;;;20.33;12.27;;;;;;;;;;5051558;28;20470;-75
2022/03/04 13:26:09;;;;;;;20.42;12.50;;;;;;;;;;5049691;28;20033;-76
2022/03/04 13:29:14;;;;;;;20.45;12.23;;;;;;;;;;5051197;28;20175;-76
2022/03/04 13:31:41;;;;;;;18.23;11.57;;;;;;;;;;5008867;28;20057;-75
2022/03/04 13:34:09;;;;;;;17.73;11.70;;;;;;;;;;5009688;28;20034;-75
2022/03/04 13:36:38;;;;;;;18.60;11.95;;;;;;;;;;5029486;28;20029;-74
2022/03/04 13:39:11;;;;;;;20.73;12.38;;;;;;;;;;5053031;28;20071;-76
2022/03/04 13:41:38;;;;;;;21.02;11.60;;;;;;;;;;5053603;28;20451;-75
2022/03/04 13:44:08;;;;;;;20.10;11.02;;;;;;;;;;5053612;28;20029;-74
2022/03/04 13:46:34;;;;;;;11.90;6.93;;;;;;;;;;5053424;28;20390;-77
2022/03/04 13:49:02;;;;;;;18.77;11.43;;;;;;;;;;5052937;28;20029;-75
2022/03/04 13:51:28;;;;;;;23.00;11.40;;;;;;;;;;5052081;28;20359;-76
2022/03/04 13:53:55;;;;;;;17.40;10.45;;;;;;;;;;5052042;28;20060;-73
2022/03/04 13:56:22;;;;;;;13.15;8.65;;;;;;;;;;5052150;28;20027;-75
2022/03/04 13:58:56;;;;;;;11.43;7.75;;;;;;;;;;5052502;28;20033;-75
2022/03/04 14:01:22;;;;;;;15.65;6.72;;;;;;;;;;5053315;28;20056;-77
2022/03/04 14:03:49;;;;;;;16.83;11.25;;;;;;;;;;5053370;28;20037;-76
2022/03/04 14:06:15;;;;;;;20.45;10.50;;;;;;;;;;5036411;28;20147;-76
2022/03/04 14:08:42;;;;;;;10.85;6.38;;;;;;;;;;5053429;28;20021;-75
2022/03/04 14:11:09;;;;;;;14.35;5.78;;;;;;;;;;5053546;28;20061;-76
2022/03/04 14:13:36;;;;;;;11.95;5.13;;;;;;;;;;5053549;28;20024;-76
2022/03/04 14:16:03;;;;;;;10.65;5.28;;;;;;;;;;5054096;28;20467;-76
2022/03/04 14:18:29;;;;;;;11.43;5.70;;;;;;;;;;5054578;28;20040;-75
2022/03/04 14:21:03;;;;;;;9.68;5.25;;;;;;;;;;5053604;28;20029;-76